Time;durP1;ratioP1;P1;durP2;ratioP2;P2;SDS_P1;SDS_P2;PMS_P1;PMS_P2;Temp;Humidity;BMP_temperature;BMP_pressure;BME280_temperature;BME280_humidity;BME280_pressure;Samples;Min_cycle;Max_cycle;Signal;HPM_P1;HPM_P2
2021/11/11 00:00:13;;;;;;;;;;;5.80;99.90;6.00;100134.00;;;;340479;28;90377;-87
2021/11/11 00:00:25;;;;;;;;;;;5.70;99.90;5.90;100139.00;;;;340513;28;86742;-87
2021/11/11 00:00:39;;;;;;;;;;;5.80;99.90;5.90;100145.00;;;;340701;28;89084;-87
2021/11/11 00:00:51;;;;;;;;;;;5.70;99.90;5.90;100139.00;;;;339091;28;86081;-87
2021/11/11 00:01:03;;;;;;;;;;;5.70;99.90;5.90;100144.00;;;;343234;28;90868;-87
2021/11/11 00:01:15;;;;;;;;;;;5.70;99.90;6.00;100135.00;;;;340442;28;88258;-87
2021/11/11 00:01:31;;;;;;;;;;;5.70;99.90;6.10;100136.00;;;;339287;28;88699;-87
2021/11/11 00:01:43;;;;;;;;;;;5.70;99.90;6.10;100150.00;;;;341756;28;87839;-87
2021/11/11 00:01:55;;;;;;;;;;;5.70;99.90;6.10;100140.00;;;;341843;28;89808;-87
2021/11/11 00:02:07;;;;;;;;;;;5.70;99.90;6.10;100142.00;;;;340324;28;88037;-87
2021/11/11 00:02:19;;;;;;;;;;;5.70;99.90;6.10;100147.00;;;;342865;28;89563;-87
2021/11/11 00:02:31;;;;;;;;;;;5.70;99.90;6.10;100148.00;;;;342920;28;88254;-87
2021/11/11 00:02:43;;;;;;;;;;;5.70;99.90;6.20;100147.00;;;;341962;28;91054;-87
2021/11/11 00:02:55;;;;;;;;;;;5.70;99.90;6.20;100146.00;;;;340373;28;87611;-87
2021/11/11 00:03:07;;;;;;;;;;;5.70;99.90;6.10;100146.00;;;;340699;28;87470;-87
2021/11/11 00:03:19;;;;;;;;;;;5.70;99.90;6.10;100137.00;;;;342719;28;87799;-87
2021/11/11 00:03:31;;;;;;;;;;;5.70;99.90;6.10;100147.00;;;;340574;28;90043;-86
2021/11/11 00:03:42;;;;;;;;;;;5.70;99.90;6.00;100147.00;;;;343196;28;87781;-87
2021/11/11 00:03:54;;;;;;;;;;;5.70;99.90;6.20;100147.00;;;;340522;28;88253;-87
2021/11/11 00:04:09;;;;;;;;;;;5.60;99.90;6.20;100147.00;;;;341755;28;86038;-87
2021/11/11 00:04:21;;;;;;;;;;;5.70;99.90;6.20;100147.00;;;;341900;28;90778;-87
2021/11/11 00:04:34;;;;;;;;;;;5.70;99.90;6.20;100145.00;;;;339093;28;86902;-87
2021/11/11 00:04:46;;;;;;;;;;;5.70;99.90;6.20;100139.00;;;;343366;28;89884;-87
2021/11/11 00:04:58;;;;;;;;;;;5.70;99.90;6.20;100141.00;;;;342897;28;88393;-87
2021/11/11 00:05:10;;;;;;;;;;;5.70;99.90;6.10;100152.00;;;;339097;28;90813;-87
2021/11/11 00:05:22;;;;;;;;;;;5.60;99.90;6.10;100153.00;;;;341755;28;87512;-87
2021/11/11 00:05:34;;;;;;;;;;;5.70;99.90;6.10;100153.00;;;;340484;28;90526;-87
2021/11/11 00:05:46;;;;;;;;;;;5.60;99.90;6.00;100142.00;;;;341230;28;88479;-87
2021/11/11 00:05:59;;;;;;;;;;;5.60;99.90;6.10;100152.00;;;;341970;28;90412;-87
2021/11/11 00:06:10;;;;;;;;;;;5.70;99.90;6.10;100151.00;;;;341605;28;86030;-87
2021/11/11 00:06:22;;;;;;;;;;;5.60;99.90;6.00;100147.00;;;;342019;28;90532;-87
2021/11/11 00:06:34;;;;;;;;;;;5.70;99.90;6.10;100148.00;;;;340388;28;88581;-87
2021/11/11 00:06:46;;;;;;;;;;;5.60;99.90;6.10;100147.00;;;;341940;28;91217;-87
2021/11/11 00:07:02;;;;;;;;;;;5.60;99.90;6.20;100143.00;;;;343046;28;86920;-87
2021/11/11 00:07:14;;;;;;;;;;;5.60;99.90;6.20;100154.00;;;;343309;28;90630;-87
2021/11/11 00:07:26;;;;;;;;;;;5.60;99.90;6.10;100140.00;;;;341789;28;86862;-87
2021/11/11 00:07:38;;;;;;;;;;;5.60;99.90;6.10;100142.00;;;;338049;28;87769;-87
2021/11/11 00:07:50;;;;;;;;;;;5.60;99.90;6.20;100147.00;;;;340445;28;86830;-86
2021/11/11 00:08:03;;;;;;;;;;;5.60;99.90;6.20;100140.00;;;;343313;28;90430;-87
2021/11/11 00:08:15;;;;;;;;;;;5.60;99.90;6.20;100137.00;;;;342250;28;87041;-86
2021/11/11 00:08:27;;;;;;;;;;;5.60;99.90;6.20;100141.00;;;;340598;28;90729;-86
2021/11/11 00:08:39;;;;;;;;;;;5.60;99.90;6.20;100145.00;;;;343155;28;87399;-87
2021/11/11 00:08:50;;;;;;;;;;;5.60;99.90;6.20;100142.00;;;;343363;28;87453;-87
2021/11/11 00:09:03;;;;;;;;;;;5.60;99.90;6.20;100145.00;;;;341679;28;87945;-87
2021/11/11 00:09:15;;;;;;;;;;;5.60;99.90;6.20;100145.00;;;;340557;28;89605;-87
2021/11/11 00:09:28;;;;;;;;;;;5.60;99.90;6.20;100151.00;;;;339062;28;88465;-87
2021/11/11 00:09:40;;;;;;;;;;;5.60;99.90;6.20;100138.00;;;;340434;28;90191;-86
2021/11/11 00:09:52;;;;;;;;;;;5.60;99.90;6.20;100146.00;;;;340544;28;86774;-87
2021/11/11 00:10:08;;;;;;;;;;;5.60;99.90;6.20;100148.00;;;;340580;28;90789;-86
2021/11/11 00:10:20;;;;;;;;;;;5.60;99.90;6.20;100149.00;;;;341713;28;88325;-87
2021/11/11 00:10:32;;;;;;;;;;;5.70;99.90;6.30;100151.00;;;;343414;28;87101;-87
2021/11/11 00:10:44;;;;;;;;;;;5.70;99.90;6.30;100156.00;;;;340267;28;87935;-87
2021/11/11 00:10:56;;;;;;;;;;;5.70;99.90;6.30;100150.00;;;;340694;28;88201;-87
2021/11/11 00:11:08;;;;;;;;;;;5.70;99.90;6.30;100148.00;;;;340293;28;88604;-87
2021/11/11 00:11:19;;;;;;;;;;;5.70;99.90;6.10;100146.00;;;;342426;28;92354;-87
2021/11/11 00:11:31;;;;;;;;;;;5.70;99.90;6.10;100147.00;;;;341632;28;87997;-87
2021/11/11 00:11:43;;;;;;;;;;;5.60;99.90;6.10;100149.00;;;;343155;28;91080;-87
2021/11/11 00:11:55;;;;;;;;;;;5.60;99.90;6.00;100147.00;;;;341551;28;88257;-87
2021/11/11 00:12:07;;;;;;;;;;;5.60;99.90;5.90;100155.00;;;;339213;28;87026;-87
2021/11/11 00:12:19;;;;;;;;;;;5.70;99.90;6.10;100147.00;;;;341754;28;87913;-87
2021/11/11 00:12:32;;;;;;;;;;;5.60;99.90;6.10;100151.00;;;;339281;28;90630;-87
2021/11/11 00:12:44;;;;;;;;;;;5.60;99.90;6.10;100156.00;;;;340306;28;87596;-87
2021/11/11 00:12:56;;;;;;;;;;;5.60;99.90;6.10;100156.00;;;;342036;28;90658;-87
2021/11/11 00:13:08;;;;;;;;;;;5.60;99.90;6.10;100153.00;;;;343144;28;86885;-87
2021/11/11 00:13:20;;;;;;;;;;;5.60;99.90;6.20;100153.00;;;;341940;28;90915;-87
2021/11/11 00:13:32;;;;;;;;;;;5.60;99.90;6.10;100154.00;;;;343063;28;87468;-87
2021/11/11 00:13:43;;;;;;;;;;;5.60;99.90;6.20;100151.00;;;;343364;28;88146;-87
2021/11/11 00:13:55;;;;;;;;;;;5.60;99.90;6.20;100152.00;;;;343064;28;87755;-87
2021/11/11 00:14:07;;;;;;;;;;;5.60;99.90;6.10;100154.00;;;;340529;28;86507;-86
2021/11/11 00:14:19;;;;;;;;;;;5.60;99.90;6.10;100149.00;;;;340976;28;88180;-86
2021/11/11 00:14:31;;;;;;;;;;;5.60;99.90;6.10;100155.00;;;;342909;28;87467;-87
2021/11/11 00:14:43;;;;;;;;;;;5.60;99.90;6.10;100157.00;;;;342928;28;86820;-87
2021/11/11 00:14:54;;;;;;;;;;;5.60;99.90;6.20;100152.00;;;;344670;28;91733;-87
2021/11/11 00:15:08;;;;;;;;;;;5.60;99.90;6.20;100149.00;;;;343033;28;87605;-87
2021/11/11 00:15:20;;;;;;;;;;;5.60;99.90;6.10;100151.00;;;;342061;28;88228;-87
2021/11/11 00:15:32;;;;;;;;;;;5.60;99.90;6.00;100150.00;;;;340282;28;86718;-87
2021/11/11 00:15:44;;;;;;;;;;;5.60;99.90;6.00;100147.00;;;;343402;28;87794;-87
2021/11/11 00:15:56;;;;;;;;;;;5.60;99.90;5.90;100156.00;;;;341782;28;86875;-87
2021/11/11 00:16:08;;;;;;;;;;;5.60;99.90;5.90;100155.00;;;;344605;28;90706;-87
2021/11/11 00:16:20;;;;;;;;;;;5.60;99.90;5.90;100148.00;;;;343109;28;86791;-87
2021/11/11 00:16:31;;;;;;;;;;;5.60;99.90;5.90;100150.00;;;;339093;28;90562;-87
2021/11/11 00:16:43;;;;;;;;;;;5.60;99.90;6.00;100153.00;;;;342643;28;87239;-87
2021/11/11 00:16:55;;;;;;;;;;;5.60;99.90;6.10;100142.00;;;;340489;28;89656;-87
2021/11/11 00:17:07;;;;;;;;;;;5.60;99.90;6.10;100155.00;;;;340339;28;88210;-87
2021/11/11 00:17:19;;;;;;;;;;;5.60;99.90;6.10;100143.00;;;;341362;28;89462;-87
2021/11/11 00:17:31;;;;;;;;;;;5.60;99.90;6.00;100144.00;;;;341584;28;86721;-87
2021/11/11 00:17:43;;;;;;;;;;;5.60;99.90;6.10;100145.00;;;;340466;28;90046;-87
2021/11/11 00:17:55;;;;;;;;;;;5.60;99.90;6.20;100150.00;;;;339002;28;88572;-87
2021/11/11 00:18:07;;;;;;;;;;;5.60;99.90;6.20;100145.00;;;;340546;28;90519;-87
2021/11/11 00:18:19;;;;;;;;;;;5.60;99.90;6.20;100145.00;;;;341640;28;87114;-87
2021/11/11 00:18:30;;;;;;;;;;;5.60;99.90;6.30;100153.00;;;;341992;28;90783;-86
2021/11/11 00:18:43;;;;;;;;;;;5.60;99.90;6.20;100152.00;;;;343105;28;87524;-87
2021/11/11 00:18:54;;;;;;;;;;;5.60;99.90;6.20;100158.00;;;;340218;28;90748;-86
2021/11/11 00:19:06;;;;;;;;;;;5.60;99.90;6.10;100154.00;;;;341655;28;88710;-86
2021/11/11 00:19:18;;;;;;;;;;;5.60;99.90;6.10;100156.00;;;;343389;28;87639;-87
2021/11/11 00:19:30;;;;;;;;;;;5.60;99.90;6.00;100153.00;;;;341500;28;87919;-87
2021/11/11 00:19:41;;;;;;;;;;;5.60;99.90;6.00;100147.00;;;;342018;28;87935;-87
2021/11/11 00:19:53;;;;;;;;;;;5.60;99.90;6.00;100155.00;;;;343039;28;88715;-87
2021/11/11 00:20:06;;;;;;;;;;;5.60;99.90;6.10;100152.00;;;;341906;28;90676;-87
2021/11/11 00:20:21;;;;;;;;;;;5.60;99.90;6.10;100154.00;;;;344192;28;88304;-87
2021/11/11 00:20:33;;;;;;;;;;;5.60;99.90;6.10;100167.00;;;;343274;28;89761;-88
2021/11/11 00:20:45;;;;;;;;;;;5.60;99.90;6.10;100161.00;;;;343695;28;87706;-87
2021/11/11 00:20:57;;;;;;;;;;;5.60;99.90;6.10;100158.00;;;;343293;28;91282;-87
2021/11/11 00:21:09;;;;;;;;;;;5.60;99.90;6.10;100165.00;;;;341683;28;86844;-86
2021/11/11 00:21:21;;;;;;;;;;;5.60;99.90;6.10;100163.00;;;;339247;28;90597;-87
2021/11/11 00:21:33;;;;;;;;;;;5.60;99.90;6.00;100161.00;;;;341675;28;86935;-87
2021/11/11 00:21:45;;;;;;;;;;;5.60;99.90;6.00;100171.00;;;;341987;28;89944;-86
2021/11/11 00:21:56;;;;;;;;;;;5.60;99.90;6.00;100168.00;;;;341818;28;86909;-87
2021/11/11 00:22:08;;;;;;;;;;;5.60;99.90;6.10;100171.00;;;;342042;28;88427;-87
2021/11/11 00:22:20;;;;;;;;;;;5.60;99.90;6.10;100168.00;;;;340422;28;86978;-87
2021/11/11 00:22:32;;;;;;;;;;;5.60;99.90;6.20;100172.00;;;;340590;28;89396;-87
2021/11/11 00:22:44;;;;;;;;;;;5.60;99.90;6.10;100176.00;;;;340285;28;86053;-85
2021/11/11 00:22:56;;;;;;;;;;;5.60;99.90;6.20;100178.00;;;;340518;28;90663;-87
2021/11/11 00:23:08;;;;;;;;;;;5.60;99.90;6.20;100171.00;;;;340382;28;86870;-87
2021/11/11 00:23:20;;;;;;;;;;;5.60;99.90;6.10;100176.00;;;;343020;28;89777;-87
2021/11/11 00:23:32;;;;;;;;;;;5.60;99.90;6.10;100180.00;;;;340323;28;88482;-87
2021/11/11 00:23:44;;;;;;;;;;;5.60;99.90;6.10;100186.00;;;;341972;28;89982;-87
2021/11/11 00:23:55;;;;;;;;;;;5.60;99.90;6.20;100178.00;;;;341678;28;86957;-87
2021/11/11 00:24:07;;;;;;;;;;;5.60;99.90;6.10;100175.00;;;;341964;28;89605;-86
2021/11/11 00:24:19;;;;;;;;;;;5.60;99.90;6.00;100178.00;;;;342934;28;87640;-87
2021/11/11 00:24:31;;;;;;;;;;;5.60;99.90;6.00;100180.00;;;;340636;28;90390;-87
2021/11/11 00:24:43;;;;;;;;;;;5.60;99.90;6.00;100185.00;;;;340286;28;88530;-87
2021/11/11 00:24:54;;;;;;;;;;;5.60;99.90;6.00;100188.00;;;;341914;28;89600;-87
2021/11/11 00:25:07;;;;;;;;;;;5.60;99.90;5.90;100184.00;;;;341749;28;88574;-86
2021/11/11 00:25:19;;;;;;;;;;;5.60;99.90;5.90;100184.00;;;;344687;28;88166;-87
2021/11/11 00:25:31;;;;;;;;;;;5.60;99.90;6.00;100189.00;;;;341738;28;86531;-87
2021/11/11 00:25:43;;;;;;;;;;;5.60;99.90;6.00;100188.00;;;;344597;28;87287;-85
2021/11/11 00:25:55;;;;;;;;;;;5.60;99.90;6.10;100178.00;;;;342907;28;88469;-87
2021/11/11 00:26:06;;;;;;;;;;;5.60;99.90;6.20;100195.00;;;;343354;28;90914;-87
2021/11/11 00:26:18;;;;;;;;;;;5.60;99.90;6.20;100185.00;;;;343924;28;92146;-87
2021/11/11 00:26:30;;;;;;;;;;;5.60;99.90;6.20;100187.00;;;;341863;28;90684;-87
2021/11/11 00:26:43;;;;;;;;;;;5.60;99.90;6.10;100186.00;;;;344275;28;87006;-87
2021/11/11 00:26:54;;;;;;;;;;;5.60;99.90;6.10;100193.00;;;;343327;28;88158;-87
2021/11/11 00:27:06;;;;;;;;;;;5.60;99.90;6.20;100186.00;;;;343071;28;88532;-87
2021/11/11 00:27:18;;;;;;;;;;;5.60;99.90;6.10;100180.00;;;;341745;28;89743;-87
2021/11/11 00:27:30;;;;;;;;;;;5.60;99.90;6.00;100192.00;;;;340311;28;87777;-87
2021/11/11 00:27:42;;;;;;;;;;;5.60;99.90;6.10;100190.00;;;;341964;28;90189;-87
2021/11/11 00:27:53;;;;;;;;;;;5.60;99.90;6.20;100192.00;;;;339054;28;86990;-87
2021/11/11 00:28:05;;;;;;;;;;;5.60;99.90;6.20;100195.00;;;;341940;28;88534;-87
2021/11/11 00:28:17;;;;;;;;;;;5.60;99.90;6.20;100189.00;;;;343089;28;88305;-86
2021/11/11 00:28:29;;;;;;;;;;;5.60;99.90;6.20;100189.00;;;;340469;28;91189;-87
2021/11/11 00:28:40;;;;;;;;;;;5.60;99.90;6.10;100186.00;;;;341612;28;87864;-87
2021/11/11 00:28:52;;;;;;;;;;;5.70;99.90;6.00;100187.00;;;;340597;28;88481;-87
2021/11/11 00:29:04;;;;;;;;;;;5.60;99.90;6.10;100186.00;;;;341741;28;88459;-86
2021/11/11 00:29:16;;;;;;;;;;;5.60;99.90;6.00;100188.00;;;;342847;28;90634;-87
2021/11/11 00:29:28;;;;;;;;;;;5.60;99.90;6.00;100194.00;;;;342215;28;88270;-87
2021/11/11 00:29:40;;;;;;;;;;;5.60;99.90;6.00;100191.00;;;;343343;28;88768;-86
2021/11/11 00:29:52;;;;;;;;;;;5.60;99.90;6.00;100197.00;;;;341760;28;87122;-87
2021/11/11 00:30:04;;;;;;;;;;;5.60;99.90;5.90;100192.00;;;;339174;28;90695;-87
2021/11/11 00:30:18;;;;;;;;;;;5.60;99.90;5.80;100193.00;;;;341815;28;86882;-87
2021/11/11 00:30:30;;;;;;;;;;;5.60;99.90;6.00;100190.00;;;;340530;28;92562;-86
2021/11/11 00:30:42;;;;;;;;;;;5.60;99.90;6.00;100192.00;;;;338966;28;87695;-87
2021/11/11 00:30:54;;;;;;;;;;;5.60;99.90;6.10;100197.00;;;;340566;28;91243;-87
2021/11/11 00:31:06;;;;;;;;;;;5.60;99.90;6.10;100192.00;;;;341687;28;86817;-86
2021/11/11 00:31:17;;;;;;;;;;;5.60;99.90;6.20;100196.00;;;;340573;28;87383;-87
2021/11/11 00:31:29;;;;;;;;;;;5.60;99.90;6.10;100195.00;;;;340361;28;86147;-87
2021/11/11 00:31:41;;;;;;;;;;;5.60;99.90;6.10;100196.00;;;;342020;28;88545;-87
2021/11/11 00:31:53;;;;;;;;;;;5.60;99.90;6.00;100201.00;;;;344448;28;87303;-87
2021/11/11 00:32:05;;;;;;;;;;;5.60;99.90;6.10;100196.00;;;;341839;28;89882;-87
2021/11/11 00:32:17;;;;;;;;;;;5.60;99.90;6.10;100210.00;;;;341305;28;87058;-87
2021/11/11 00:32:28;;;;;;;;;;;5.60;99.90;6.10;100187.00;;;;340604;28;90658;-87
2021/11/11 00:32:41;;;;;;;;;;;5.60;99.90;6.20;100196.00;;;;340277;28;87092;-86
2021/11/11 00:32:52;;;;;;;;;;;5.60;99.90;6.20;100198.00;;;;340547;28;91315;-87
2021/11/11 00:33:04;;;;;;;;;;;5.60;99.90;6.20;100202.00;;;;343064;28;88061;-87
2021/11/11 00:33:16;;;;;;;;;;;5.60;99.90;6.20;100206.00;;;;341866;28;91063;-87
2021/11/11 00:33:28;;;;;;;;;;;5.60;99.90;6.20;100199.00;;;;340308;28;87024;-87
2021/11/11 00:33:39;;;;;;;;;;;5.60;99.90;6.20;100198.00;;;;342070;28;88669;-86
2021/11/11 00:33:51;;;;;;;;;;;5.60;99.90;6.10;100205.00;;;;341488;28;88085;-87
2021/11/11 00:34:03;;;;;;;;;;;5.60;99.90;6.00;100205.00;;;;340465;28;87396;-86
2021/11/11 00:34:15;;;;;;;;;;;5.60;99.90;6.00;100201.00;;;;340386;28;86827;-86
2021/11/11 00:34:26;;;;;;;;;;;5.60;99.90;6.00;100203.00;;;;341891;28;90832;-86
2021/11/11 00:34:39;;;;;;;;;;;5.60;99.90;6.00;100197.00;;;;341766;28;87171;-87
2021/11/11 00:34:54;;;;;;;;;;;5.60;99.90;6.10;100207.00;;;;341771;28;91466;-87
2021/11/11 00:35:07;;;;;;;;;;;5.60;99.90;6.00;100203.00;;;;344419;28;88181;-87
2021/11/11 00:35:21;;;;;;;;;;;5.60;99.90;6.00;100206.00;;;;341973;28;90827;-87
2021/11/11 00:35:33;;;;;;;;;;;5.60;99.90;6.00;100205.00;;;;343049;28;86906;-87
2021/11/11 00:35:45;;;;;;;;;;;5.60;99.90;6.10;100217.00;;;;343367;28;89984;-87
2021/11/11 00:35:57;;;;;;;;;;;5.50;99.90;6.00;100200.00;;;;344463;28;87903;-87
2021/11/11 00:36:09;;;;;;;;;;;5.60;99.90;5.90;100208.00;;;;343240;28;88235;-87
2021/11/11 00:36:20;;;;;;;;;;;5.60;99.90;5.80;100204.00;;;;343060;28;86627;-87
2021/11/11 00:36:32;;;;;;;;;;;5.50;99.90;5.70;100209.00;;;;339311;28;88466;-87
2021/11/11 00:36:44;;;;;;;;;;;5.50;99.90;5.70;100211.00;;;;343052;28;88592;-87
2021/11/11 00:36:56;;;;;;;;;;;5.50;99.90;5.60;100210.00;;;;343283;28;90276;-87
2021/11/11 00:37:08;;;;;;;;;;;5.40;99.90;5.70;100201.00;;;;341621;28;87046;-87
2021/11/11 00:37:20;;;;;;;;;;;5.40;99.90;5.70;100206.00;;;;341911;28;90606;-87
2021/11/11 00:37:32;;;;;;;;;;;5.40;99.90;5.70;100210.00;;;;341582;28;88759;-87
2021/11/11 00:37:43;;;;;;;;;;;5.40;99.90;5.80;100209.00;;;;340646;28;90392;-87
2021/11/11 00:37:57;;;;;;;;;;;5.40;99.90;5.90;100209.00;;;;340492;28;86179;-87
2021/11/11 00:38:09;;;;;;;;;;;5.40;99.90;6.00;100197.00;;;;342948;28;90957;-87
2021/11/11 00:38:20;;;;;;;;;;;5.40;99.90;6.00;100205.00;;;;344551;28;86797;-87
2021/11/11 00:38:32;;;;;;;;;;;5.40;99.90;5.90;100206.00;;;;343231;28;89779;-87
2021/11/11 00:38:44;;;;;;;;;;;5.40;99.90;5.80;100195.00;;;;340947;28;86791;-87
2021/11/11 00:38:56;;;;;;;;;;;5.40;99.90;5.80;100207.00;;;;341848;28;90459;-88
2021/11/11 00:39:11;;;;;;;;;;;5.40;99.90;5.80;100207.00;;;;342973;28;88129;-87
2021/11/11 00:39:22;;;;;;;;;;;5.40;99.90;5.70;100209.00;;;;341975;28;91033;-87
2021/11/11 00:39:34;;;;;;;;;;;5.40;99.90;5.70;100205.00;;;;341681;28;88291;-87
2021/11/11 00:39:47;;;;;;;;;;;5.40;99.90;5.70;100197.00;;;;341910;28;90149;-87
2021/11/11 00:39:59;;;;;;;;;;;5.40;99.90;5.60;100205.00;;;;341639;28;88464;-87
2021/11/11 00:40:11;;;;;;;;;;;5.40;99.90;5.70;100201.00;;;;340372;28;90572;-87
2021/11/11 00:40:25;;;;;;;;;;;5.40;99.90;5.60;100199.00;;;;340289;28;88175;-87
2021/11/11 00:40:37;;;;;;;;;;;5.40;99.90;5.60;100199.00;;;;343189;28;90853;-87
2021/11/11 00:40:48;;;;;;;;;;;5.30;99.90;5.60;100200.00;;;;341744;28;87069;-86
2021/11/11 00:41:00;;;;;;;;;;;5.30;99.90;5.60;100199.00;;;;344630;28;90887;-87
2021/11/11 00:41:14;;;;;;;;;;;5.30;99.90;5.60;100195.00;;;;342824;28;87378;-87
2021/11/11 00:41:25;;;;;;;;;;;5.30;99.90;5.60;100196.00;;;;344527;28;89882;-87
2021/11/11 00:41:37;;;;;;;;;;;5.30;99.90;5.60;100202.00;;;;344353;28;88661;-87
2021/11/11 00:41:49;;;;;;;;;;;5.30;99.90;5.70;100205.00;;;;341896;28;86517;-87
2021/11/11 00:42:01;;;;;;;;;;;5.30;99.90;5.70;100194.00;;;;339091;28;86106;-87
2021/11/11 00:42:14;;;;;;;;;;;5.30;99.90;5.70;100205.00;;;;341823;28;90013;-87
2021/11/11 00:42:26;;;;;;;;;;;5.30;99.90;5.80;100201.00;;;;344445;28;87874;-87
2021/11/11 00:42:38;;;;;;;;;;;5.30;99.90;5.80;100198.00;;;;341891;28;88385;-87
2021/11/11 00:42:49;;;;;;;;;;;5.30;99.90;5.90;100202.00;;;;341315;28;87490;-87
2021/11/11 00:43:02;;;;;;;;;;;5.30;99.90;5.90;100197.00;;;;341912;28;90083;-87
2021/11/11 00:43:13;;;;;;;;;;;5.30;99.90;5.80;100198.00;;;;340124;28;87695;-87
2021/11/11 00:43:25;;;;;;;;;;;5.30;99.90;5.60;100191.00;;;;340536;28;90893;-87
2021/11/11 00:43:37;;;;;;;;;;;5.30;99.90;5.60;100203.00;;;;342901;28;87941;-87
2021/11/11 00:43:50;;;;;;;;;;;5.30;99.90;5.60;100192.00;;;;346070;28;89123;-87
2021/11/11 00:44:01;;;;;;;;;;;5.30;99.90;5.50;100183.00;;;;342945;28;87776;-87
2021/11/11 00:44:13;;;;;;;;;;;5.30;99.90;5.50;100195.00;;;;342146;28;90745;-87
2021/11/11 00:44:25;;;;;;;;;;;5.30;99.90;5.60;100191.00;;;;341563;28;89112;-87
2021/11/11 00:44:37;;;;;;;;;;;5.30;99.90;5.70;100187.00;;;;341894;28;89795;-87
2021/11/11 00:44:49;;;;;;;;;;;5.30;99.90;5.80;100193.00;;;;342837;28;87331;-87
2021/11/11 00:45:01;;;;;;;;;;;5.30;99.90;5.80;100186.00;;;;340368;28;91463;-87
2021/11/11 00:45:13;;;;;;;;;;;5.30;99.90;5.80;100187.00;;;;338874;28;88418;-86
2021/11/11 00:45:25;;;;;;;;;;;5.30;99.90;5.80;100181.00;;;;341879;28;90343;-87
2021/11/11 00:45:38;;;;;;;;;;;5.20;99.90;5.70;100190.00;;;;341606;28;87847;-87
2021/11/11 00:45:50;;;;;;;;;;;5.30;99.90;5.80;100189.00;;;;340667;28;86580;-87
2021/11/11 00:46:01;;;;;;;;;;;5.30;99.90;5.70;100184.00;;;;341779;28;86814;-87
2021/11/11 00:46:13;;;;;;;;;;;5.30;99.90;5.60;100180.00;;;;341765;28;90393;-87
2021/11/11 00:46:25;;;;;;;;;;;5.30;99.90;5.60;100177.00;;;;343015;28;88991;-87
2021/11/11 00:46:37;;;;;;;;;;;5.30;99.90;5.70;100174.00;;;;340489;28;89767;-87
2021/11/11 00:46:49;;;;;;;;;;;5.20;99.90;5.80;100175.00;;;;342864;28;87862;-87
2021/11/11 00:47:00;;;;;;;;;;;5.30;99.90;5.80;100169.00;;;;344654;28;88839;-87
2021/11/11 00:47:12;;;;;;;;;;;5.30;99.90;5.90;100170.00;;;;339983;28;86755;-87
2021/11/11 00:47:24;;;;;;;;;;;5.30;99.90;5.90;100177.00;;;;340589;28;89708;-87
2021/11/11 00:47:36;;;;;;;;;;;5.30;99.90;5.90;100165.00;;;;341544;28;86816;-87
2021/11/11 00:47:49;;;;;;;;;;;5.30;99.90;5.80;100176.00;;;;339261;28;91094;-87
2021/11/11 00:48:01;;;;;;;;;;;5.30;99.90;5.80;100170.00;;;;341662;28;87817;-87
2021/11/11 00:48:12;;;;;;;;;;;5.30;99.90;5.90;100169.00;;;;341803;28;89628;-87
2021/11/11 00:48:24;;;;;;;;;;;5.30;99.90;5.90;100166.00;;;;340080;28;87523;-87
2021/11/11 00:48:36;;;;;;;;;;;5.30;99.90;5.90;100167.00;;;;340677;28;87965;-87
2021/11/11 00:48:48;;;;;;;;;;;5.30;99.90;5.70;100172.00;;;;339989;28;87530;-87
2021/11/11 00:49:06;;;;;;;;;;;5.30;99.90;5.90;100162.00;;;;341941;28;88047;-87
2021/11/11 00:49:17;;;;;;;;;;;5.30;99.90;6.00;100162.00;;;;343011;28;86875;-87
2021/11/11 00:49:29;;;;;;;;;;;5.30;99.90;5.90;100174.00;;;;341926;28;89861;-87
2021/11/11 00:49:41;;;;;;;;;;;5.30;99.90;5.80;100163.00;;;;340275;28;88649;-87
2021/11/11 00:49:52;;;;;;;;;;;5.30;99.90;5.80;100168.00;;;;340538;28;90067;-87
2021/11/11 00:50:05;;;;;;;;;;;5.30;99.90;5.90;100164.00;;;;338967;28;88374;-87
2021/11/11 00:50:19;;;;;;;;;;;5.30;99.90;6.00;100162.00;;;;339251;28;91852;-87
2021/11/11 00:50:30;;;;;;;;;;;5.30;99.90;6.00;100171.00;;;;340519;28;87878;-87
2021/11/11 00:50:42;;;;;;;;;;;5.40;99.90;5.90;100170.00;;;;341836;28;87139;-87
2021/11/11 00:50:54;;;;;;;;;;;5.40;99.90;5.90;100170.00;;;;341593;28;87618;-87
2021/11/11 00:51:06;;;;;;;;;;;5.40;99.90;5.90;100169.00;;;;341936;28;91815;-87
2021/11/11 00:51:17;;;;;;;;;;;5.40;99.90;5.80;100172.00;;;;340272;28;86902;-87
2021/11/11 00:51:29;;;;;;;;;;;5.40;99.90;5.80;100175.00;;;;339131;28;91349;-87
2021/11/11 00:51:41;;;;;;;;;;;5.40;99.90;5.80;100169.00;;;;340313;28;86931;-87
2021/11/11 00:51:52;;;;;;;;;;;5.40;99.90;5.80;100169.00;;;;339296;28;86785;-87
2021/11/11 00:52:04;;;;;;;;;;;5.40;99.90;5.90;100172.00;;;;338986;28;88281;-87
2021/11/11 00:52:16;;;;;;;;;;;5.40;99.90;5.90;100168.00;;;;340226;28;88715;-87
2021/11/11 00:52:29;;;;;;;;;;;5.40;99.90;6.00;100172.00;;;;341669;28;87854;-87
2021/11/11 00:52:41;;;;;;;;;;;5.40;99.90;6.00;100165.00;;;;340535;28;90562;-87
2021/11/11 00:52:53;;;;;;;;;;;5.40;99.90;6.00;100172.00;;;;340254;28;87172;-86
2021/11/11 00:53:07;;;;;;;;;;;5.40;99.90;6.00;100167.00;;;;341950;28;89612;-87
2021/11/11 00:53:19;;;;;;;;;;;5.40;99.90;6.00;100166.00;;;;341244;28;92383;-87
2021/11/11 00:53:31;;;;;;;;;;;5.40;99.90;6.00;100172.00;;;;341796;28;87105;-87
2021/11/11 00:53:43;;;;;;;;;;;5.40;99.90;6.00;100167.00;;;;342359;28;88112;-87
2021/11/11 00:53:55;;;;;;;;;;;5.40;99.90;6.10;100161.00;;;;340435;28;89362;-87
2021/11/11 00:54:07;;;;;;;;;;;5.40;99.90;6.10;100167.00;;;;343058;28;86862;-87
2021/11/11 00:54:18;;;;;;;;;;;5.40;99.90;6.10;100170.00;;;;341735;28;90616;-87
2021/11/11 00:54:31;;;;;;;;;;;5.40;99.90;6.10;100166.00;;;;340351;28;87843;-87
2021/11/11 00:54:43;;;;;;;;;;;5.40;99.90;6.00;100166.00;;;;340528;28;91109;-87
2021/11/11 00:54:55;;;;;;;;;;;5.40;99.90;5.90;100166.00;;;;341613;28;87868;-87
2021/11/11 00:55:07;;;;;;;;;;;5.50;99.90;5.80;100171.00;;;;341854;28;89766;-87
2021/11/11 00:55:19;;;;;;;;;;;5.40;99.90;6.00;100160.00;;;;340511;28;86740;-87
2021/11/11 00:55:35;;;;;;;;;;;5.40;99.90;6.00;100174.00;;;;339223;28;87239;-87
2021/11/11 00:55:47;;;;;;;;;;;5.50;99.90;6.00;100173.00;;;;343111;28;87020;-87
2021/11/11 00:55:58;;;;;;;;;;;5.40;99.90;5.90;100170.00;;;;343085;28;90120;-87
2021/11/11 00:56:11;;;;;;;;;;;5.40;99.90;5.90;100169.00;;;;341250;28;87031;-87
2021/11/11 00:56:23;;;;;;;;;;;5.40;99.90;5.90;100168.00;;;;342838;28;90750;-87
2021/11/11 00:56:34;;;;;;;;;;;5.40;99.90;6.00;100173.00;;;;341754;28;85956;-87
2021/11/11 00:56:46;;;;;;;;;;;5.40;99.90;6.00;100175.00;;;;342781;28;88272;-87
2021/11/11 00:56:58;;;;;;;;;;;5.40;99.90;6.00;100170.00;;;;340921;28;88535;-87
2021/11/11 00:57:09;;;;;;;;;;;5.50;99.90;6.10;100165.00;;;;339831;28;90952;-87
2021/11/11 00:57:21;;;;;;;;;;;5.50;99.90;6.10;100181.00;;;;341582;28;87933;-87
2021/11/11 00:57:33;;;;;;;;;;;5.40;99.90;6.10;100181.00;;;;341614;28;88198;-87
2021/11/11 00:57:45;;;;;;;;;;;5.50;99.90;6.00;100181.00;;;;341652;28;86100;-87
2021/11/11 00:57:58;;;;;;;;;;;5.50;99.90;6.00;100171.00;;;;340701;28;86750;-87
2021/11/11 00:58:10;;;;;;;;;;;5.50;99.90;6.00;100177.00;;;;341568;28;87030;-88
2021/11/11 00:58:21;;;;;;;;;;;5.40;99.90;6.00;100181.00;;;;341918;28;90074;-87
2021/11/11 00:58:33;;;;;;;;;;;5.50;99.90;6.00;100183.00;;;;343031;28;87775;-87
2021/11/11 00:58:45;;;;;;;;;;;5.50;99.90;6.00;100186.00;;;;340528;28;90840;-87
2021/11/11 00:58:56;;;;;;;;;;;5.50;99.90;5.90;100187.00;;;;340321;28;88390;-87
2021/11/11 00:59:10;;;;;;;;;;;5.50;99.90;6.10;100177.00;;;;341661;28;90397;-87
2021/11/11 00:59:22;;;;;;;;;;;5.50;99.90;6.10;100188.00;;;;341383;28;88517;-87
2021/11/11 00:59:34;;;;;;;;;;;5.50;99.90;6.10;100182.00;;;;340509;28;89674;-87
2021/11/11 00:59:46;;;;;;;;;;;5.50;99.90;6.10;100188.00;;;;341283;28;87738;-87
2021/11/11 00:59:58;;;;;;;;;;;5.50;99.90;6.10;100192.00;;;;340585;28;87575;-87
2021/11/11 01:00:11;;;;;;;;;;;5.50;99.90;6.20;100191.00;;;;342831;28;87860;-87
2021/11/11 01:00:23;;;;;;;;;;;5.50;99.90;6.20;100186.00;;;;341913;28;90470;-87
2021/11/11 01:00:37;;;;;;;;;;;5.50;99.90;6.10;100181.00;;;;341689;28;86963;-87
2021/11/11 01:00:48;;;;;;;;;;;5.50;99.90;6.20;100178.00;;;;339220;28;87115;-87